首页
METAR-TAF:

METAR-TAF

机场 :

帕尔杜比采, 捷克共和国

纬度: 50-00-48N, 经度: 15-44-19E, 海拔: 226米

当前天气观测

该预报发布于54分钟前的16:00 UTC
风速3节,风向西转西北
温度 -1°C
湿度 80%
气压 1023 hPa
能见度10公里或以上
阴天层高于1500英尺

METAR: LKPD 241600Z 29003KT 9999 OVC015 M01/M04 Q1023 NOSIG RMK WHT WHT

时间: 17:54 (16:54 UTC)

预报

该预报发布于5小时和54分钟前的11:00 UTC
预报有效从24日的 12点(UTC)到 25日的 12点(UTC)
风速2节,风向多变
能见度10公里或以上
多云层高于1700英尺
短暂存在
从 24日的 12点(UTC)到 24日的 14点(UTC)
能見度: 7000
阴天层高于1200英尺
成为
从 24日的 14点(UTC)到 24日的 16点(UTC)
能见度10公里或以上
1500米以下无云,无积雨云
成为
从 25日的 00点(UTC)到 25日的 02点(UTC)
能見度: 4000
阴天层高于1000英尺
轻雾

TAF: LKPD 241100Z 2412/2512 VRB02KT 9999 BKN017 TEMPO 2412/2414 7000 OVC012 BECMG 2414/2416 CAVOK BECMG 2500/2502 4000 BR OVC010

超过4000个机场的气象观测和天气预报(METAR&TAF报告)。

可查询的气象台以黄色和红色小点在地图上表示。

将鼠标移到小点上方,可查看气象台名称。

然后点击查看天气观测和预报。

如需切换地图:点击带黑十字的绿色按钮放大地图;点击带横线的绿色按钮缩小地图;或者点击绿色箭头查看邻近地区的地图。


METAR-TAF: